Time;durP1;ratioP1;P1;durP2;ratioP2;P2;SDS_P1;SDS_P2;PMS_P1;PMS_P2;Temp;Humidity;BMP_temperature;BMP_pressure;BME280_temperature;BME280_humidity;BME280_pressure;Samples;Min_cycle;Max_cycle;Signal;HPM_P1;HPM_P2
2022/11/11 00:02:02;;;;;;;13.10;4.57;;;7.50;99.90;;;;;;5067838;28;20025;-78
2022/11/11 00:04:28;;;;;;;9.88;4.85;;;7.40;99.90;;;;;;5060563;28;20032;-77
2022/11/11 00:06:54;;;;;;;8.38;4.10;;;7.50;99.90;;;;;;5062367;28;20025;-77
2022/11/11 00:09:19;;;;;;;8.48;4.47;;;7.40;99.90;;;;;;5065726;28;20455;-74
2022/11/11 00:11:45;;;;;;;10.43;4.10;;;7.30;99.90;;;;;;5056014;28;20029;-76
2022/11/11 00:14:11;;;;;;;7.22;4.15;;;7.30;99.90;;;;;;5067026;28;20086;-76
2022/11/11 00:25:04;;;;;;;6.25;3.72;;;7.10;99.90;;;;;;5061156;28;20055;-76
2022/11/11 00:25:06;;;;;;;7.63;3.20;;;7.10;99.90;;;;;;5060027;28;20082;-76
2022/11/11 00:27:31;;;;;;;5.30;3.20;;;7.10;99.90;;;;;;5067395;28;20077;-76
2022/11/11 00:29:57;;;;;;;6.60;4.13;;;7.10;99.90;;;;;;5069151;28;20029;-79
2022/11/11 00:32:23;;;;;;;6.38;3.20;;;7.10;99.90;;;;;;5058696;28;20024;-81
2022/11/11 00:37:38;;;;;;;7.50;3.60;;;7.10;99.90;;;;;;5058471;28;20087;-78
2022/11/11 00:40:04;;;;;;;5.00;3.17;;;7.00;99.90;;;;;;5069387;28;20347;-78
2022/11/11 00:42:30;;;;;;;5.63;3.63;;;7.10;99.90;;;;;;5062652;28;20493;-81
2022/11/11 00:44:56;;;;;;;5.43;3.20;;;7.10;99.90;;;;;;5067126;28;20025;-79
2022/11/11 00:53:14;;;;;;;9.75;3.47;;;7.00;99.90;;;;;;5064361;28;20035;-79
2022/11/11 00:55:40;;;;;;;6.45;3.42;;;7.00;99.90;;;;;;5073159;28;20032;-79
2022/11/11 00:58:05;;;;;;;6.85;3.38;;;7.00;99.90;;;;;;5073972;28;20021;-81
2022/11/11 01:00:31;;;;;;;6.65;3.58;;;7.00;99.90;;;;;;5069707;28;20029;-80
2022/11/11 01:02:57;;;;;;;7.72;3.78;;;7.00;99.90;;;;;;5068210;28;20036;-81
2022/11/11 01:05:24;;;;;;;8.40;3.83;;;7.10;99.90;;;;;;5062469;28;20028;-84
2022/11/11 01:07:49;;;;;;;8.27;3.80;;;7.10;99.90;;;;;;5073764;28;20024;-88
2022/11/11 01:10:36;;;;;;;8.40;4.05;;;7.00;99.90;;;;;;5062088;28;20063;-83
2022/11/11 01:13:10;;;;;;;8.02;3.60;;;7.00;99.90;;;;;;5064356;28;20029;-84
2022/11/11 01:15:36;;;;;;;7.00;3.70;;;6.90;99.90;;;;;;5072326;28;20021;-80
2022/11/11 01:18:02;;;;;;;5.97;3.30;;;6.90;99.90;;;;;;5059083;28;20017;-79
2022/11/11 01:20:28;;;;;;;5.83;3.60;;;6.80;99.90;;;;;;5069316;28;20104;-76
2022/11/11 01:22:53;;;;;;;4.70;3.00;;;6.70;99.90;;;;;;5066413;28;20028;-78
2022/11/11 01:25:19;;;;;;;9.00;3.50;;;6.70;99.90;;;;;;5060516;28;20449;-79
2022/11/11 01:27:44;;;;;;;6.83;3.37;;;6.70;99.90;;;;;;5073258;28;20029;-78
2022/11/11 01:30:12;;;;;;;8.23;3.70;;;6.60;99.90;;;;;;5070758;28;20454;-77
2022/11/11 01:32:39;;;;;;;5.83;3.83;;;6.60;99.90;;;;;;5063789;28;20037;-77
2022/11/11 01:35:06;;;;;;;9.18;3.25;;;6.50;99.90;;;;;;5063498;28;20033;-77
2022/11/11 01:37:34;;;;;;;5.20;3.47;;;6.40;99.90;;;;;;5071285;28;20027;-77
2022/11/11 01:40:01;;;;;;;5.10;3.10;;;6.30;99.90;;;;;;5042621;28;20024;-79
2022/11/11 01:42:27;;;;;;;7.67;3.50;;;6.30;99.90;;;;;;5069284;28;20025;-79
2022/11/11 01:44:52;;;;;;;10.43;3.30;;;6.40;99.90;;;;;;5065880;28;20035;-79
2022/11/11 01:47:18;;;;;;;22.37;4.50;;;6.40;99.90;;;;;;5061586;28;20021;-80
2022/11/11 01:50:01;;;;;;;14.93;5.32;;;6.40;99.90;;;;;;5071644;28;20127;-80
2022/11/11 01:52:37;;;;;;;;;;;6.50;99.90;;;;;;5063804;28;20024;-74
2022/11/11 01:55:08;;;;;;;12.25;5.18;;;6.50;99.90;;;;;;5062770;28;19915;-73
2022/11/11 01:57:44;;;;;;;8.45;4.80;;;6.60;99.90;;;;;;5070225;28;20103;-73
2022/11/11 02:00:14;;;;;;;8.77;4.77;;;6.60;99.90;;;;;;5043982;28;20479;-73
2022/11/11 02:02:56;;;;;;;6.90;4.33;;;6.60;99.90;;;;;;5067110;28;20037;-88
2022/11/11 02:05:41;;;;;;;10.48;5.05;;;6.80;99.90;;;;;;5069821;28;20048;-78
2022/11/11 02:08:14;;;;;;;23.30;4.97;;;6.80;99.90;;;;;;5042961;28;20129;-82
2022/11/11 02:10:45;;;;;;;22.90;4.90;;;6.80;99.90;;;;;;5066730;28;20076;-79
2022/11/11 02:15:57;;;;;;;26.87;6.03;;;6.90;99.90;;;;;;5055885;28;20043;-82
2022/11/11 02:18:24;;;;;;;15.68;4.93;;;6.90;99.90;;;;;;5054855;28;20024;-79
2022/11/11 02:20:49;;;;;;;8.70;4.60;;;7.00;99.90;;;;;;5065710;28;20029;-77
2022/11/11 02:23:26;;;;;;;21.33;5.13;;;6.90;99.90;;;;;;5061275;28;20036;-77
2022/11/11 02:25:54;;;;;;;27.95;4.97;;;6.90;99.90;;;;;;5057670;28;20028;-77
2022/11/11 02:28:21;;;;;;;35.20;5.27;;;6.90;99.90;;;;;;5051784;28;20487;-83
2022/11/11 02:30:47;;;;;;;26.43;4.70;;;6.80;99.90;;;;;;5055004;28;20033;-78
2022/11/11 02:33:12;;;;;;;18.65;4.55;;;6.80;99.90;;;;;;5054139;28;20039;-78
2022/11/11 02:35:54;;;;;;;27.90;4.43;;;6.80;99.90;;;;;;5055213;28;20032;-79
2022/11/11 02:38:19;;;;;;;16.73;4.77;;;6.80;99.90;;;;;;5054561;28;20481;-78
2022/11/11 02:43:31;;;;;;;9.77;3.90;;;6.80;99.90;;;;;;5055135;28;20532;-77
2022/11/11 02:45:58;;;;;;;8.33;4.40;;;6.80;99.90;;;;;;5053464;28;20075;-76
2022/11/11 02:48:24;;;;;;;5.70;3.20;;;6.90;99.90;;;;;;5054762;28;20043;-77
2022/11/11 02:50:50;;;;;;;9.10;3.97;;;6.90;99.90;;;;;;5053731;28;20029;-77
2022/11/11 02:53:16;;;;;;;11.97;4.30;;;6.90;99.90;;;;;;5053747;28;20194;-77
2022/11/11 02:55:42;;;;;;;7.80;5.00;;;6.90;99.90;;;;;;5053693;28;20075;-76
2022/11/11 02:58:08;;;;;;;6.87;4.37;;;6.90;99.90;;;;;;5052944;28;20440;-77
2022/11/11 03:00:34;;;;;;;13.90;4.63;;;6.90;99.90;;;;;;5054489;28;20028;-77
2022/11/11 03:02:59;;;;;;;9.05;4.05;;;6.90;99.90;;;;;;5053123;28;20115;-75
2022/11/11 03:05:25;;;;;;;8.55;3.95;;;6.90;99.90;;;;;;5053339;28;20082;-77
2022/11/11 03:07:50;;;;;;;9.00;4.30;;;6.90;99.90;;;;;;5054845;28;20025;-78
2022/11/11 03:10:16;;;;;;;9.80;4.00;;;6.90;99.90;;;;;;5053264;28;20544;-77
2022/11/11 03:12:42;;;;;;;10.27;4.55;;;6.90;99.90;;;;;;5053451;28;20033;-77
2022/11/11 03:15:08;;;;;;;8.10;4.22;;;7.00;99.90;;;;;;5052488;28;20036;-77
2022/11/11 03:17:39;;;;;;;10.27;4.20;;;6.90;99.90;;;;;;5054407;28;20470;-77
2022/11/11 03:23:05;;;;;;;8.77;4.57;;;6.80;99.90;;;;;;5054272;28;20039;-77
2022/11/11 03:25:38;;;;;;;13.10;4.33;;;6.70;99.90;;;;;;5053280;28;20064;-77
2022/11/11 03:28:09;;;;;;;16.00;4.97;;;6.60;99.90;;;;;;5054143;28;20024;-77
2022/11/11 03:30:35;;;;;;;7.83;4.47;;;6.50;99.90;;;;;;5053898;28;20119;-77
2022/11/11 03:33:01;;;;;;;11.60;4.17;;;6.50;99.90;;;;;;5053758;28;20431;-77
2022/11/11 03:35:27;;;;;;;7.63;3.97;;;6.60;99.90;;;;;;5053017;28;20033;-77
2022/11/11 03:40:37;;;;;;;8.30;4.47;;;6.60;99.90;;;;;;5053895;28;20059;-78
2022/11/11 03:43:03;;;;;;;7.07;4.20;;;6.70;99.90;;;;;;5052417;28;20390;-76
2022/11/11 03:45:29;;;;;;;8.13;4.30;;;6.70;99.90;;;;;;5054043;28;20021;-76
2022/11/11 03:47:55;;;;;;;5.27;3.77;;;6.70;99.90;;;;;;5053013;28;20050;-77
2022/11/11 03:50:21;;;;;;;9.77;4.27;;;6.80;99.90;;;;;;5053291;28;20025;-76
2022/11/11 03:52:47;;;;;;;6.30;3.90;;;6.80;99.90;;;;;;5052915;28;20029;-76
2022/11/11 03:55:13;;;;;;;10.60;4.70;;;6.80;99.90;;;;;;5053267;28;20036;-77
2022/11/11 03:57:44;;;;;;;9.23;4.83;;;6.90;99.90;;;;;;5053683;28;20036;-76
2022/11/11 04:00:11;;;;;;;9.30;4.80;;;6.90;99.90;;;;;;5053110;28;20021;-77
2022/11/11 04:10:48;;;;;;;10.23;5.22;;;6.90;99.90;;;;;;5053165;28;20087;-77
2022/11/11 04:16:07;;;;;;;9.07;4.83;;;7.00;99.90;;;;;;5053504;28;20055;-77
2022/11/11 04:26:56;;;;;;;16.07;4.37;;;6.90;99.90;;;;;;5052274;28;20036;-77
2022/11/11 04:29:29;;;;;;;14.75;4.63;;;6.90;99.90;;;;;;5052722;28;20029;-77
2022/11/11 04:34:40;;;;;;;9.07;4.85;;;7.00;99.90;;;;;;5053219;28;20048;-78
2022/11/11 04:37:05;;;;;;;16.58;4.47;;;7.10;99.90;;;;;;5051870;28;20033;-77
2022/11/11 04:42:15;;;;;;;21.40;5.50;;;7.10;99.90;;;;;;5053233;28;20078;-77
2022/11/11 04:47:24;;;;;;;20.80;5.80;;;6.80;99.90;;;;;;5053041;28;20056;-80
2022/11/11 04:49:50;;;;;;;15.33;5.67;;;6.80;99.90;;;;;;5053951;28;20029;-79
2022/11/11 04:52:27;;;;;;;11.50;5.30;;;6.90;99.90;;;;;;5051733;28;20094;-79
2022/11/11 04:57:43;;;;;;;16.87;5.87;;;7.00;99.90;;;;;;5053271;28;20036;-79
2022/11/11 05:00:12;;;;;;;14.13;5.43;;;6.90;99.90;;;;;;5051484;28;20021;-77
2022/11/11 05:05:23;;;;;;;20.53;5.70;;;7.00;99.90;;;;;;5052517;28;20485;-78
2022/11/11 05:10:32;;;;;;;23.33;5.90;;;7.10;99.90;;;;;;5053394;28;20075;-78
2022/11/11 05:21:19;;;;;;;13.77;4.80;;;7.10;99.90;;;;;;5051867;28;20461;-78
2022/11/11 05:21:21;;;;;;;13.30;5.53;;;7.20;99.90;;;;;;5052216;28;20036;-77
2022/11/11 05:26:31;;;;;;;13.73;5.95;;;7.30;99.90;;;;;;5053076;28;20036;-77
2022/11/11 05:28:57;;;;;;;17.77;5.77;;;7.30;99.90;;;;;;5052940;28;20025;-77
2022/11/11 05:31:22;;;;;;;34.50;6.13;;;7.30;99.90;;;;;;5050498;28;20115;-77
2022/11/11 05:33:48;;;;;;;14.50;5.83;;;7.20;99.90;;;;;;5052182;28;20037;-77
2022/11/11 05:36:14;;;;;;;17.33;5.40;;;7.20;99.90;;;;;;5050838;28;20032;-76
2022/11/11 05:38:39;;;;;;;18.85;5.47;;;7.10;99.90;;;;;;5055566;28;20029;-77
2022/11/11 05:41:06;;;;;;;10.80;4.80;;;7.00;99.90;;;;;;5056384;28;20550;-77
2022/11/11 05:43:32;;;;;;;36.50;6.87;;;7.10;99.90;;;;;;5056653;28;20031;-77
2022/11/11 05:45:57;;;;;;;13.40;5.30;;;7.10;99.90;;;;;;5056629;28;20357;-77
2022/11/11 05:48:23;;;;;;;37.70;6.60;;;7.10;99.90;;;;;;5055640;28;20025;-77
2022/11/11 05:50:48;;;;;;;28.00;5.57;;;7.10;99.90;;;;;;5055343;28;20021;-79
2022/11/11 05:53:14;;;;;;;8.77;4.70;;;7.10;99.90;;;;;;5056207;28;20028;-78
2022/11/11 05:55:40;;;;;;;19.80;4.57;;;7.20;99.90;;;;;;5055348;28;20025;-78
2022/11/11 05:58:05;;;;;;;8.97;4.67;;;7.30;99.90;;;;;;5055362;28;20028;-78
2022/11/11 06:00:31;;;;;;;12.00;4.50;;;7.30;99.90;;;;;;5055579;28;20421;-77
2022/11/11 06:03:05;;;;;;;8.85;3.63;;;7.20;99.90;;;;;;5055754;28;20041;-77
2022/11/11 06:05:31;;;;;;;18.80;3.57;;;7.20;99.90;;;;;;5054172;28;20509;-77
2022/11/11 06:07:56;;;;;;;13.57;3.53;;;7.20;99.90;;;;;;5054758;28;20040;-77
2022/11/11 06:10:32;;;;;;;5.43;3.07;;;7.10;99.90;;;;;;5053923;28;20132;-77
2022/11/11 06:13:01;;;;;;;7.65;3.10;;;7.10;99.90;;;;;;5055088;28;20483;-76
2022/11/11 06:15:37;;;;;;;7.47;3.00;;;7.10;99.90;;;;;;5054042;28;20021;-76
2022/11/11 06:18:04;;;;;;;5.53;2.83;;;7.10;99.90;;;;;;5054535;28;20029;-77
2022/11/11 06:20:30;;;;;;;5.07;3.00;;;7.10;99.90;;;;;;5052810;28;20017;-76
2022/11/11 06:22:56;;;;;;;6.93;3.00;;;7.10;99.90;;;;;;5054544;28;20031;-77
2022/11/11 06:28:11;;;;;;;5.53;2.50;;;7.00;99.90;;;;;;5054357;28;20028;-76
2022/11/11 06:30:37;;;;;;;4.00;2.57;;;7.00;99.90;;;;;;5053686;28;20450;-77
2022/11/11 06:33:03;;;;;;;7.77;3.10;;;7.10;99.90;;;;;;5054126;28;20037;-77
2022/11/11 06:35:29;;;;;;;7.15;2.72;;;7.20;99.90;;;;;;5054262;28;20304;-77
2022/11/11 06:37:54;;;;;;;3.90;2.60;;;7.10;99.90;;;;;;5054934;28;20342;-77
2022/11/11 06:40:20;;;;;;;6.07;2.27;;;7.10;99.90;;;;;;5054577;28;20021;-77
2022/11/11 06:42:45;;;;;;;5.05;2.20;;;7.10;99.90;;;;;;5054954;28;20438;-77
2022/11/11 06:45:11;;;;;;;4.30;2.60;;;7.10;99.90;;;;;;5053495;28;20438;-77
2022/11/11 06:47:36;;;;;;;3.60;2.50;;;7.00;99.90;;;;;;5054004;28;20434;-77
2022/11/11 06:50:02;;;;;;;3.55;2.20;;;7.00;99.90;;;;;;5054263;28;20025;-77
2022/11/11 06:52:28;;;;;;;8.73;2.60;;;7.10;99.90;;;;;;5052989;28;20115;-79
2022/11/11 06:54:53;;;;;;;5.15;2.75;;;7.00;99.90;;;;;;5054414;28;20033;-77
2022/11/11 06:57:22;;;;;;;4.73;2.73;;;7.00;99.90;;;;;;5053084;28;20058;-77
2022/11/11 06:59:47;;;;;;;3.33;2.23;;;7.10;99.90;;;;;;5053824;28;20068;-77
2022/11/11 07:02:13;;;;;;;2.83;2.00;;;7.20;99.90;;;;;;5054634;28;20077;-76
2022/11/11 07:04:39;;;;;;;4.28;2.20;;;7.30;99.90;;;;;;5053797;28;20021;-77
2022/11/11 07:07:05;;;;;;;4.15;2.40;;;7.30;99.90;;;;;;5054687;28;20032;-77
2022/11/11 07:09:30;;;;;;;4.40;2.65;;;7.40;99.90;;;;;;5052412;28;20447;-76
2022/11/11 07:11:56;;;;;;;6.77;2.90;;;7.30;99.90;;;;;;5054633;28;20040;-77
2022/11/11 07:14:22;;;;;;;4.35;2.83;;;7.30;99.90;;;;;;5052026;28;20378;-77
2022/11/11 07:16:47;;;;;;;8.07;3.40;;;7.30;99.90;;;;;;5052624;28;20033;-77
2022/11/11 07:19:13;;;;;;;6.65;3.13;;;7.30;99.90;;;;;;5052528;28;20058;-74
2022/11/11 07:21:38;;;;;;;5.30;3.27;;;7.30;99.90;;;;;;5052619;28;20032;-78
2022/11/11 07:24:04;;;;;;;6.27;3.20;;;7.30;99.90;;;;;;5053049;28;20105;-78
2022/11/11 07:26:30;;;;;;;8.10;3.63;;;7.30;99.90;;;;;;5052653;28;20053;-78
2022/11/11 07:28:56;;;;;;;8.50;3.50;;;7.30;99.90;;;;;;5052938;28;20515;-78
2022/11/11 07:31:21;;;;;;;15.57;4.07;;;7.30;99.90;;;;;;5052024;28;20032;-78
2022/11/11 07:33:47;;;;;;;8.23;3.17;;;7.20;99.90;;;;;;5052609;28;20041;-78
2022/11/11 07:36:12;;;;;;;6.70;3.60;;;7.10;99.90;;;;;;5052824;28;20459;-78
2022/11/11 07:38:38;;;;;;;6.85;3.22;;;7.20;99.90;;;;;;5053173;28;20047;-78
2022/11/11 07:41:04;;;;;;;6.87;3.47;;;7.20;99.90;;;;;;5052337;28;20033;-78
2022/11/11 07:43:30;;;;;;;7.80;3.63;;;7.30;99.90;;;;;;5053061;28;20370;-78
2022/11/11 07:45:55;;;;;;;6.13;3.38;;;7.30;99.90;;;;;;5053796;28;20086;-78
2022/11/11 07:48:21;;;;;;;7.23;3.37;;;7.30;99.90;;;;;;5053038;28;20029;-77
2022/11/11 07:50:46;;;;;;;10.97;3.60;;;7.30;99.90;;;;;;5052006;28;20481;-77
2022/11/11 07:53:12;;;;;;;7.97;3.63;;;7.20;99.90;;;;;;5053445;28;20040;-78
2022/11/11 07:55:37;;;;;;;8.57;3.70;;;7.30;99.90;;;;;;5052914;28;20037;-78
2022/11/11 07:58:03;;;;;;;15.50;3.83;;;7.30;99.90;;;;;;5053440;28;20036;-76
2022/11/11 08:00:28;;;;;;;7.23;3.50;;;7.30;99.90;;;;;;5053108;28;20534;-77
2022/11/11 08:02:54;;;;;;;8.23;3.55;;;7.20;99.90;;;;;;5052605;28;20036;-76
2022/11/11 08:05:20;;;;;;;18.65;4.07;;;7.30;99.90;;;;;;5051785;28;20416;-76
2022/11/11 08:07:45;;;;;;;7.27;4.30;;;7.30;99.90;;;;;;5053131;28;20031;-76
2022/11/11 08:10:11;;;;;;;8.40;4.00;;;7.40;99.90;;;;;;5053182;28;20045;-77
2022/11/11 08:15:21;;;;;;;11.53;3.67;;;7.50;99.90;;;;;;5052874;28;20091;-77
2022/11/11 08:17:47;;;;;;;10.02;3.80;;;7.50;99.90;;;;;;5052431;28;20025;-77
2022/11/11 08:20:13;;;;;;;5.70;3.27;;;7.50;99.90;;;;;;5053335;28;20028;-77
2022/11/11 08:22:40;;;;;;;12.00;3.75;;;7.50;99.90;;;;;;5052680;28;20017;-77
2022/11/11 08:25:08;;;;;;;6.63;3.70;;;7.50;99.90;;;;;;5053417;28;20419;-77
2022/11/11 08:27:34;;;;;;;7.20;3.70;;;7.50;99.90;;;;;;5052505;28;20480;-77
2022/11/11 08:30:00;;;;;;;9.07;4.33;;;7.50;99.90;;;;;;5052354;28;20139;-77
2022/11/11 08:32:26;;;;;;;7.60;4.55;;;7.60;99.90;;;;;;5052260;28;20068;-77
2022/11/11 08:34:52;;;;;;;8.98;4.38;;;7.60;99.90;;;;;;5052001;28;20116;-77
2022/11/11 08:37:18;;;;;;;11.63;4.47;;;7.70;99.90;;;;;;5052824;28;20033;-77
2022/11/11 08:39:43;;;;;;;10.05;4.07;;;7.60;99.90;;;;;;5052072;28;20021;-77
2022/11/11 08:42:09;;;;;;;9.98;4.53;;;7.60;99.90;;;;;;5050821;28;20108;-77
2022/11/11 08:44:34;;;;;;;6.95;3.97;;;7.50;99.90;;;;;;5052178;28;20104;-78
2022/11/11 08:47:00;;;;;;;11.98;4.22;;;7.60;99.90;;;;;;5058599;28;20454;-78
2022/11/11 08:49:25;;;;;;;9.00;4.10;;;7.70;99.90;;;;;;5058372;28;20021;-78
2022/11/11 08:51:51;;;;;;;9.40;4.13;;;7.60;99.90;;;;;;5067149;28;20037;-77
2022/11/11 08:54:17;;;;;;;18.25;5.03;;;7.70;99.90;;;;;;5054986;28;20077;-77
2022/11/11 08:56:42;;;;;;;9.52;4.53;;;7.80;99.90;;;;;;5067155;28;20025;-78
2022/11/11 08:59:09;;;;;;;19.73;9.00;;;7.90;99.90;;;;;;5061356;28;20027;-78
2022/11/11 09:01:35;;;;;;;11.45;5.88;;;7.90;99.90;;;;;;5071424;28;20074;-77
2022/11/11 09:04:00;;;;;;;8.95;4.93;;;8.00;99.90;;;;;;5055647;28;20112;-77
2022/11/11 09:06:28;;;;;;;19.17;5.18;;;8.00;99.90;;;;;;5067633;28;20055;-78
2022/11/11 09:08:54;;;;;;;10.13;5.40;;;8.10;99.90;;;;;;5057877;28;20072;-78
2022/11/11 09:11:19;;;;;;;7.22;4.40;;;8.20;99.90;;;;;;5062626;28;20437;-79
2022/11/11 09:13:48;;;;;;;10.82;4.63;;;8.20;99.90;;;;;;5070018;28;20112;-79
2022/11/11 09:16:14;;;;;;;6.57;4.05;;;8.20;99.90;;;;;;5059961;28;20036;-76
2022/11/11 09:18:39;;;;;;;7.93;4.85;;;8.20;99.90;;;;;;5071484;28;20029;-78
2022/11/11 09:21:05;;;;;;;6.53;3.75;;;8.30;99.90;;;;;;5063260;28;20028;-78
2022/11/11 09:23:31;;;;;;;7.20;4.55;;;8.40;99.90;;;;;;5064393;28;20108;-77
2022/11/11 09:26:02;;;;;;;8.65;4.43;;;8.50;99.90;;;;;;5071215;28;20024;-77
2022/11/11 09:28:30;;;;;;;8.70;4.70;;;8.60;99.90;;;;;;5058039;28;20033;-77
2022/11/11 09:30:58;;;;;;;9.18;4.10;;;8.70;99.90;;;;;;5068596;28;20025;-78
2022/11/11 09:33:24;;;;;;;9.43;4.95;;;8.70;99.90;;;;;;5065117;28;20500;-76
2022/11/11 09:35:50;;;;;;;9.80;5.10;;;8.70;99.90;;;;;;5057649;28;20120;-76
2022/11/11 09:38:15;;;;;;;10.73;4.82;;;8.70;99.90;;;;;;5056965;28;20024;-76
2022/11/11 09:41:10;;;;;;;10.90;4.60;;;8.60;99.90;;;;;;5057452;28;20017;-77
2022/11/11 09:43:45;;;;;;;8.57;4.30;;;8.70;99.90;;;;;;5050234;28;20041;-78
2022/11/11 09:46:48;;;;;;;7.03;3.67;;;8.80;99.90;;;;;;5057611;28;20161;-78
2022/11/11 09:49:35;;;;;;;7.10;4.57;;;8.80;99.90;;;;;;5058123;28;20438;-76
2022/11/11 09:52:24;;;;;;;7.22;4.15;;;8.90;99.90;;;;;;5060241;28;20029;-76
2022/11/11 09:54:57;;;;;;;8.02;4.20;;;8.90;99.90;;;;;;5047028;28;20024;-76
2022/11/11 09:58:00;;;;;;;5.20;3.30;;;8.90;99.90;;;;;;5068214;28;20021;-79
2022/11/11 10:00:32;;;;;;;6.60;3.70;;;8.80;99.90;;;;;;5048286;28;20039;-77
2022/11/11 10:03:08;;;;;;;6.93;4.03;;;8.80;99.90;;;;;;5057948;28;20047;-78
2022/11/11 10:05:56;;;;;;;4.90;2.90;;;8.80;99.90;;;;;;5068601;28;20027;-79
2022/11/11 10:08:30;;;;;;;5.88;4.10;;;8.80;99.90;;;;;;5068683;28;20094;-78
2022/11/11 10:10:59;;;;;;;8.10;3.72;;;8.90;99.90;;;;;;5066344;28;20125;-79
2022/11/11 10:13:29;;;;;;;7.32;3.75;;;8.90;99.90;;;;;;5056555;28;20119;-78
2022/11/11 10:16:18;;;;;;;9.45;4.22;;;9.00;99.90;;;;;;5059945;28;20025;-79
2022/11/11 10:18:51;;;;;;;7.05;3.88;;;8.90;99.90;;;;;;5045574;28;20029;-76
2022/11/11 10:21:34;;;;;;;5.53;3.85;;;9.00;99.90;;;;;;5056620;28;20393;-75
2022/11/11 10:24:05;;;;;;;8.27;4.07;;;9.00;99.90;;;;;;5054627;28;20032;-76
2022/11/11 10:26:40;;;;;;;8.07;4.72;;;9.10;99.90;;;;;;5069533;28;20397;-76
2022/11/11 10:29:19;;;;;;;9.18;4.38;;;9.10;99.90;;;;;;5070783;28;20025;-75
2022/11/11 10:31:57;;;;;;;10.40;5.13;;;9.10;99.90;;;;;;5070245;28;20405;-76
2022/11/11 10:34:29;;;;;;;6.60;4.38;;;9.10;99.90;;;;;;5067705;28;20056;-77
2022/11/11 10:36:55;;;;;;;9.73;5.53;;;9.10;99.90;;;;;;5072161;28;20408;-77
2022/11/11 10:40:03;;;;;;;9.77;5.03;;;9.20;99.90;;;;;;5071352;28;20054;-77
2022/11/11 10:42:29;;;;;;;9.52;5.18;;;9.20;99.90;;;;;;5056306;28;20486;-77
2022/11/11 10:45:00;;;;;;;8.32;4.82;;;9.30;99.90;;;;;;5056130;28;20033;-77
2022/11/11 10:47:39;;;;;;;10.40;5.57;;;9.40;99.90;;;;;;5055224;28;20029;-77
2022/11/11 10:50:16;;;;;;;10.88;5.60;;;9.40;99.90;;;;;;5059657;28;20017;-77
2022/11/11 10:52:53;;;;;;;8.43;5.80;;;9.40;99.90;;;;;;5069517;28;20031;-78
2022/11/11 10:55:37;;;;;;;7.07;4.78;;;9.50;99.90;;;;;;5071489;28;20031;-78
2022/11/11 10:58:25;;;;;;;8.60;5.28;;;9.50;99.90;;;;;;5069420;28;20095;-78
2022/11/11 11:00:53;;;;;;;8.18;5.13;;;9.70;99.90;;;;;;5045506;28;20058;-78
2022/11/11 11:03:29;;;;;;;9.00;5.38;;;9.80;99.90;;;;;;5064775;28;20035;-75
2022/11/11 11:06:02;;;;;;;12.32;6.45;;;9.90;99.90;;;;;;5056986;28;20033;-76
2022/11/11 11:08:44;;;;;;;9.45;5.30;;;10.10;99.90;;;;;;5057601;28;20033;-76
2022/11/11 11:11:19;;;;;;;12.15;7.15;;;10.20;99.90;;;;;;5062116;28;20032;-74
2022/11/11 11:14:00;;;;;;;10.43;6.95;;;10.20;99.90;;;;;;5054711;28;20029;-76
2022/11/11 11:16:32;;;;;;;9.45;6.72;;;10.30;99.90;;;;;;5068492;28;20082;-78
2022/11/11 11:19:18;;;;;;;11.75;6.95;;;10.40;99.90;;;;;;5071206;28;20097;-76
2022/11/11 11:21:54;;;;;;;12.38;7.63;;;10.30;99.90;;;;;;5068888;28;20111;-77
2022/11/11 11:24:31;;;;;;;11.23;7.68;;;10.20;99.90;;;;;;5066621;28;20475;-77
2022/11/11 11:26:59;;;;;;;11.45;7.45;;;10.20;99.90;;;;;;5069304;28;20492;-76
2022/11/11 11:29:36;;;;;;;15.18;7.70;;;10.20;99.90;;;;;;5068798;28;20025;-76
2022/11/11 11:32:15;;;;;;;15.48;8.48;;;10.20;99.90;;;;;;5066489;28;20485;-75
2022/11/11 11:34:49;;;;;;;14.35;8.32;;;10.20;99.90;;;;;;5046428;28;20028;-75
2022/11/11 11:37:16;;;;;;;15.70;9.15;;;10.20;99.90;;;;;;5068811;28;20402;-75
2022/11/11 11:39:42;;;;;;;15.48;8.10;;;10.20;99.90;;;;;;5068458;28;20029;-79
2022/11/11 11:42:25;;;;;;;16.67;8.70;;;10.30;99.90;;;;;;5058024;28;20056;-77
2022/11/11 11:44:51;;;;;;;19.98;9.88;;;10.30;99.90;;;;;;5043588;28;20021;-77
2022/11/11 11:47:44;;;;;;;17.98;9.50;;;10.50;99.90;;;;;;5055103;28;20021;-76
2022/11/11 11:50:16;;;;;;;17.40;8.55;;;10.60;99.90;;;;;;5058641;28;20027;-75
2022/11/11 11:52:56;;;;;;;18.88;9.43;;;10.70;99.90;;;;;;5053564;28;20021;-76
2022/11/11 11:55:27;;;;;;;15.70;9.13;;;10.70;99.90;;;;;;5055431;28;20021;-77
2022/11/11 11:57:53;;;;;;;20.10;8.70;;;10.70;99.90;;;;;;5055187;28;20115;-76
2022/11/11 12:00:42;;;;;;;18.80;8.30;;;10.70;99.90;;;;;;5056024;28;20108;-76
2022/11/11 12:03:28;;;;;;;15.80;8.43;;;10.70;99.90;;;;;;5069569;28;20107;-75
2022/11/11 12:06:26;;;;;;;15.52;8.55;;;10.80;99.90;;;;;;5069096;28;20028;-76
2022/11/11 12:09:13;;;;;;;15.07;8.73;;;10.90;99.90;;;;;;5043058;28;20076;-77
2022/11/11 12:11:56;;;;;;;16.15;9.02;;;11.00;99.90;;;;;;5054837;28;20037;-76
2022/11/11 12:14:36;;;;;;;18.80;9.07;;;11.00;99.90;;;;;;5066904;28;20028;-77
2022/11/11 12:17:29;;;;;;;18.30;10.65;;;11.10;99.90;;;;;;5067931;28;20548;-75
2022/11/11 12:20:15;;;;;;;17.08;10.35;;;11.10;99.90;;;;;;5068682;28;20028;-76
2022/11/11 12:23:02;;;;;;;16.77;10.07;;;11.40;99.90;;;;;;5042320;28;20028;-77
2022/11/11 12:25:47;;;;;;;15.75;9.50;;;11.80;99.90;;;;;;5054027;28;20029;-79
2022/11/11 12:28:38;;;;;;;18.90;9.98;;;12.30;99.90;;;;;;5066684;28;20024;-80
2022/11/11 12:31:12;;;;;;;16.83;9.85;;;12.70;99.90;;;;;;5069430;28;20028;-81
2022/11/11 12:34:16;;;;;;;13.93;8.80;;;12.90;99.90;;;;;;5068622;28;20032;-84
2022/11/11 12:37:04;;;;;;;17.60;9.02;;;13.10;99.90;;;;;;5048580;28;20037;-88
2022/11/11 12:39:30;;;;;;;15.45;8.85;;;13.20;99.90;;;;;;5053946;28;20047;-77
2022/11/11 12:41:55;;;;;;;14.45;8.77;;;13.60;99.90;;;;;;5056648;28;20028;-83
2022/11/11 12:44:32;;;;;;;14.63;9.25;;;13.50;99.90;;;;;;5053767;28;20048;-77
2022/11/11 12:47:11;;;;;;;17.17;8.82;;;13.50;99.90;;;;;;5053378;28;20514;-76
2022/11/11 12:50:17;;;;;;;167.40;67.93;;;13.70;99.90;;;;;;5054826;28;20053;-83
2022/11/11 12:53:35;;;;;;;39.20;21.23;;;13.30;99.90;;;;;;5055210;28;20033;-75
2022/11/11 12:56:35;;;;;;;21.20;13.18;;;13.10;99.90;;;;;;5070590;28;20048;-75
2022/11/11 12:59:32;;;;;;;21.95;12.65;;;12.70;99.90;;;;;;5045984;28;20028;-75
2022/11/11 13:02:37;;;;;;;18.65;11.63;;;12.40;99.90;;;;;;5070951;28;20535;-74
2022/11/11 13:05:27;;;;;;;20.50;11.60;;;12.10;99.90;;;;;;5052997;28;20095;-74
2022/11/11 13:08:11;;;;;;;18.95;11.60;;;11.90;99.90;;;;;;5067212;28;20469;-75
2022/11/11 13:11:02;;;;;;;21.42;12.02;;;11.90;99.90;;;;;;5042285;28;20094;-77
2022/11/11 13:13:30;;;;;;;19.90;11.20;;;12.00;99.90;;;;;;5050433;28;20049;-77
2022/11/11 13:15:57;;;;;;;22.70;11.93;;;11.80;99.90;;;;;;5051019;28;20072;-74
2022/11/11 13:18:36;;;;;;;20.33;11.98;;;11.70;99.90;;;;;;5054064;28;20100;-74
2022/11/11 13:21:16;;;;;;;20.05;10.65;;;11.60;99.90;;;;;;5060459;28;20108;-75
2022/11/11 13:23:42;;;;;;;20.13;10.77;;;11.50;99.90;;;;;;5066083;28;20051;-74
2022/11/11 13:26:24;;;;;;;20.92;11.27;;;11.40;99.90;;;;;;5052684;28;20017;-76
2022/11/11 13:28:57;;;;;;;20.65;11.57;;;11.30;99.90;;;;;;5042321;28;20020;-75
2022/11/11 13:31:37;;;;;;;21.45;10.63;;;11.10;99.90;;;;;;5058156;28;20530;-76
2022/11/11 13:34:09;;;;;;;18.80;10.30;;;11.10;99.90;;;;;;5065047;28;20056;-75
2022/11/11 13:37:05;;;;;;;17.38;10.30;;;10.90;99.90;;;;;;5054504;28;20028;-76
2022/11/11 13:39:37;;;;;;;18.38;10.43;;;10.80;99.90;;;;;;5063115;28;20101;-75
2022/11/11 13:42:04;;;;;;;19.65;10.75;;;10.70;99.90;;;;;;5054798;28;20063;-77
2022/11/11 13:44:54;;;;;;;20.77;10.52;;;10.70;99.90;;;;;;5054145;28;20036;-78
2022/11/11 13:47:43;;;;;;;22.77;11.18;;;10.50;99.90;;;;;;5053824;28;20041;-75
2022/11/11 13:50:36;;;;;;;19.95;11.05;;;10.40;99.90;;;;;;5056922;28;20031;-76
2022/11/11 13:53:04;;;;;;;22.13;11.10;;;10.30;99.90;;;;;;5052802;28;20033;-76
2022/11/11 13:55:37;;;;;;;22.38;11.43;;;10.40;99.90;;;;;;5052564;28;20443;-76
2022/11/11 13:58:04;;;;;;;25.40;13.40;;;10.30;99.90;;;;;;5057725;28;20021;-75
2022/11/11 14:00:37;;;;;;;25.02;11.95;;;10.30;99.90;;;;;;5056321;28;20051;-76
2022/11/11 14:03:21;;;;;;;22.35;11.90;;;10.20;99.90;;;;;;5057684;28;20037;-75
2022/11/11 14:05:46;;;;;;;24.45;11.35;;;10.20;99.90;;;;;;5055621;28;20140;-75
2022/11/11 14:08:46;;;;;;;22.35;10.52;;;10.10;99.90;;;;;;5061084;28;20099;-75
2022/11/11 14:11:24;;;;;;;23.35;11.82;;;10.10;99.90;;;;;;5066075;28;20470;-75
2022/11/11 14:13:54;;;;;;;23.77;11.57;;;10.00;99.90;;;;;;5057199;28;20040;-76
2022/11/11 14:16:33;;;;;;;29.48;13.65;;;10.00;99.90;;;;;;5073210;28;20042;-76
2022/11/11 14:19:12;;;;;;;21.50;11.48;;;10.10;99.90;;;;;;5056366;28;20082;-76
2022/11/11 14:21:53;;;;;;;25.00;12.23;;;10.10;99.90;;;;;;5055612;28;20080;-75
2022/11/11 14:24:35;;;;;;;23.05;12.13;;;10.10;99.90;;;;;;5058462;28;20032;-75
2022/11/11 14:27:03;;;;;;;23.15;12.00;;;10.10;99.90;;;;;;5060996;28;20476;-75